sensor_id;sensor_type;location;lat;lon;timestamp;P1;durP1;ratioP1;P2;durP2;ratioP2
26062;SDS011;13837;48.562;12.108;2024-03-08T00:01:23;60.17;;;54.80;;
26062;SDS011;13837;48.562;12.108;2024-03-08T00:03:49;58.95;;;53.88;;
26062;SDS011;13837;48.562;12.108;2024-03-08T00:06:16;59.83;;;54.50;;
26062;SDS011;13837;48.562;12.108;2024-03-08T00:08:42;58.75;;;53.72;;
26062;SDS011;13837;48.562;12.108;2024-03-08T00:11:11;57.72;;;52.88;;
26062;SDS011;13837;48.562;12.108;2024-03-08T00:13:37;58.58;;;53.10;;
26062;SDS011;13837;48.562;12.108;2024-03-08T00:16:05;57.20;;;52.28;;
26062;SDS011;13837;48.562;12.108;2024-03-08T00:18:33;60.03;;;54.65;;
26062;SDS011;13837;48.562;12.108;2024-03-08T00:20:59;59.35;;;54.33;;
26062;SDS011;13837;48.562;12.108;2024-03-08T00:23:26;58.70;;;53.53;;
26062;SDS011;13837;48.562;12.108;2024-03-08T00:25:54;59.30;;;53.85;;
26062;SDS011;13837;48.562;12.108;2024-03-08T00:28:21;60.33;;;55.22;;
26062;SDS011;13837;48.562;12.108;2024-03-08T00:30:47;59.53;;;54.35;;
26062;SDS011;13837;48.562;12.108;2024-03-08T00:33:13;58.97;;;53.88;;
26062;SDS011;13837;48.562;12.108;2024-03-08T00:35:39;58.95;;;54.05;;
26062;SDS011;13837;48.562;12.108;2024-03-08T00:38:06;60.20;;;55.10;;
26062;SDS011;13837;48.562;12.108;2024-03-08T00:40:32;59.65;;;54.47;;
26062;SDS011;13837;48.562;12.108;2024-03-08T00:42:59;60.45;;;55.20;;
26062;SDS011;13837;48.562;12.108;2024-03-08T00:45:25;62.65;;;57.33;;
26062;SDS011;13837;48.562;12.108;2024-03-08T00:47:51;60.47;;;55.00;;
26062;SDS011;13837;48.562;12.108;2024-03-08T00:50:19;62.42;;;57.35;;
26062;SDS011;13837;48.562;12.108;2024-03-08T00:52:45;59.78;;;54.60;;
26062;SDS011;13837;48.562;12.108;2024-03-08T00:55:11;59.38;;;54.42;;
26062;SDS011;13837;48.562;12.108;2024-03-08T00:57:38;61.63;;;56.58;;
26062;SDS011;13837;48.562;12.108;2024-03-08T01:00:05;62.45;;;57.05;;
26062;SDS011;13837;48.562;12.108;2024-03-08T01:02:37;60.55;;;55.05;;
26062;SDS011;13837;48.562;12.108;2024-03-08T01:05:04;62.35;;;56.80;;
26062;SDS011;13837;48.562;12.108;2024-03-08T01:07:35;62.50;;;56.87;;
26062;SDS011;13837;48.562;12.108;2024-03-08T01:18:07;62.22;;;56.40;;
26062;SDS011;13837;48.562;12.108;2024-03-08T01:20:35;60.97;;;55.78;;
26062;SDS011;13837;48.562;12.108;2024-03-08T01:23:01;62.17;;;56.78;;
26062;SDS011;13837;48.562;12.108;2024-03-08T01:25:28;60.90;;;55.25;;
26062;SDS011;13837;48.562;12.108;2024-03-08T01:27:55;62.17;;;57.22;;
26062;SDS011;13837;48.562;12.108;2024-03-08T01:30:21;63.15;;;57.55;;
26062;SDS011;13837;48.562;12.108;2024-03-08T01:32:48;64.45;;;58.70;;
26062;SDS011;13837;48.562;12.108;2024-03-08T01:35:14;64.82;;;58.85;;
26062;SDS011;13837;48.562;12.108;2024-03-08T01:37:41;61.80;;;56.33;;
26062;SDS011;13837;48.562;12.108;2024-03-08T01:40:07;61.15;;;55.78;;
26062;SDS011;13837;48.562;12.108;2024-03-08T01:42:36;61.65;;;56.38;;
26062;SDS011;13837;48.562;12.108;2024-03-08T01:45:04;65.40;;;59.55;;
26062;SDS011;13837;48.562;12.108;2024-03-08T01:47:31;61.85;;;56.60;;
26062;SDS011;13837;48.562;12.108;2024-03-08T01:49:58;63.38;;;57.63;;
26062;SDS011;13837;48.562;12.108;2024-03-08T01:52:26;63.20;;;57.83;;
26062;SDS011;13837;48.562;12.108;2024-03-08T01:54:53;62.60;;;57.17;;
26062;SDS011;13837;48.562;12.108;2024-03-08T01:57:19;62.20;;;56.72;;
26062;SDS011;13837;48.562;12.108;2024-03-08T01:59:46;63.67;;;58.42;;
26062;SDS011;13837;48.562;12.108;2024-03-08T02:02:12;64.82;;;59.13;;
26062;SDS011;13837;48.562;12.108;2024-03-08T02:04:40;64.88;;;59.00;;
26062;SDS011;13837;48.562;12.108;2024-03-08T02:07:07;66.13;;;60.08;;
26062;SDS011;13837;48.562;12.108;2024-03-08T02:09:34;63.28;;;57.50;;
26062;SDS011;13837;48.562;12.108;2024-03-08T02:12:00;65.28;;;59.20;;
26062;SDS011;13837;48.562;12.108;2024-03-08T02:14:31;65.70;;;59.72;;
26062;SDS011;13837;48.562;12.108;2024-03-08T02:17:00;64.47;;;58.80;;
26062;SDS011;13837;48.562;12.108;2024-03-08T02:19:26;63.63;;;57.65;;
26062;SDS011;13837;48.562;12.108;2024-03-08T02:21:53;64.45;;;58.55;;
26062;SDS011;13837;48.562;12.108;2024-03-08T02:24:19;63.05;;;57.50;;
26062;SDS011;13837;48.562;12.108;2024-03-08T02:26:45;65.80;;;60.00;;
26062;SDS011;13837;48.562;12.108;2024-03-08T02:29:11;65.22;;;58.92;;
26062;SDS011;13837;48.562;12.108;2024-03-08T02:31:37;64.63;;;58.85;;
26062;SDS011;13837;48.562;12.108;2024-03-08T02:34:04;65.55;;;59.65;;
26062;SDS011;13837;48.562;12.108;2024-03-08T02:36:30;64.80;;;58.63;;
26062;SDS011;13837;48.562;12.108;2024-03-08T02:39:01;66.00;;;60.08;;
26062;SDS011;13837;48.562;12.108;2024-03-08T02:41:27;66.03;;;59.33;;
26062;SDS011;13837;48.562;12.108;2024-03-08T02:43:53;65.60;;;59.53;;
26062;SDS011;13837;48.562;12.108;2024-03-08T02:46:20;67.00;;;60.65;;
26062;SDS011;13837;48.562;12.108;2024-03-08T02:48:46;65.28;;;59.40;;
26062;SDS011;13837;48.562;12.108;2024-03-08T02:51:12;67.30;;;61.15;;
26062;SDS011;13837;48.562;12.108;2024-03-08T02:53:41;65.90;;;60.07;;
26062;SDS011;13837;48.562;12.108;2024-03-08T02:56:08;66.15;;;60.20;;
26062;SDS011;13837;48.562;12.108;2024-03-08T02:58:38;67.13;;;60.83;;
26062;SDS011;13837;48.562;12.108;2024-03-08T03:01:04;67.63;;;61.03;;
26062;SDS011;13837;48.562;12.108;2024-03-08T03:03:30;68.80;;;62.63;;
26062;SDS011;13837;48.562;12.108;2024-03-08T03:05:56;67.25;;;61.17;;
26062;SDS011;13837;48.562;12.108;2024-03-08T03:08:22;67.03;;;60.55;;
26062;SDS011;13837;48.562;12.108;2024-03-08T03:10:49;68.20;;;61.72;;
26062;SDS011;13837;48.562;12.108;2024-03-08T03:13:15;67.28;;;60.70;;
26062;SDS011;13837;48.562;12.108;2024-03-08T03:15:41;68.28;;;61.78;;
26062;SDS011;13837;48.562;12.108;2024-03-08T03:18:07;68.63;;;61.85;;
26062;SDS011;13837;48.562;12.108;2024-03-08T03:20:33;68.07;;;61.78;;
26062;SDS011;13837;48.562;12.108;2024-03-08T03:23:05;69.85;;;62.67;;
26062;SDS011;13837;48.562;12.108;2024-03-08T03:25:33;73.68;;;65.82;;
26062;SDS011;13837;48.562;12.108;2024-03-08T03:28:03;68.70;;;62.05;;
26062;SDS011;13837;48.562;12.108;2024-03-08T03:30:29;70.97;;;63.95;;
26062;SDS011;13837;48.562;12.108;2024-03-08T03:33:02;72.45;;;65.05;;
26062;SDS011;13837;48.562;12.108;2024-03-08T03:35:35;69.32;;;62.33;;
26062;SDS011;13837;48.562;12.108;2024-03-08T03:38:04;70.97;;;63.65;;
26062;SDS011;13837;48.562;12.108;2024-03-08T03:40:36;74.35;;;66.97;;
26062;SDS011;13837;48.562;12.108;2024-03-08T03:43:03;72.53;;;64.65;;
26062;SDS011;13837;48.562;12.108;2024-03-08T03:45:29;73.75;;;65.63;;
26062;SDS011;13837;48.562;12.108;2024-03-08T03:47:58;73.43;;;65.15;;
26062;SDS011;13837;48.562;12.108;2024-03-08T03:50:25;72.65;;;64.80;;
26062;SDS011;13837;48.562;12.108;2024-03-08T03:52:51;74.03;;;65.55;;
26062;SDS011;13837;48.562;12.108;2024-03-08T03:55:17;75.15;;;67.03;;
26062;SDS011;13837;48.562;12.108;2024-03-08T03:57:44;74.50;;;66.78;;
26062;SDS011;13837;48.562;12.108;2024-03-08T04:00:11;77.53;;;68.10;;
26062;SDS011;13837;48.562;12.108;2024-03-08T04:02:40;76.38;;;68.30;;
26062;SDS011;13837;48.562;12.108;2024-03-08T04:05:08;80.25;;;68.20;;
26062;SDS011;13837;48.562;12.108;2024-03-08T04:07:34;80.50;;;68.03;;
26062;SDS011;13837;48.562;12.108;2024-03-08T04:10:04;75.57;;;66.57;;
26062;SDS011;13837;48.562;12.108;2024-03-08T04:12:31;76.47;;;68.38;;
26062;SDS011;13837;48.562;12.108;2024-03-08T04:14:57;79.55;;;68.13;;
26062;SDS011;13837;48.562;12.108;2024-03-08T04:17:23;76.68;;;65.07;;
26062;SDS011;13837;48.562;12.108;2024-03-08T04:19:50;76.80;;;68.63;;
26062;SDS011;13837;48.562;12.108;2024-03-08T04:22:16;75.32;;;67.18;;
26062;SDS011;13837;48.562;12.108;2024-03-08T04:24:43;73.72;;;65.78;;
26062;SDS011;13837;48.562;12.108;2024-03-08T04:27:09;78.13;;;66.97;;
26062;SDS011;13837;48.562;12.108;2024-03-08T04:29:36;72.82;;;64.93;;
26062;SDS011;13837;48.562;12.108;2024-03-08T04:32:03;73.65;;;65.78;;
26062;SDS011;13837;48.562;12.108;2024-03-08T04:34:29;79.18;;;66.70;;
26062;SDS011;13837;48.562;12.108;2024-03-08T04:36:58;75.82;;;66.55;;
26062;SDS011;13837;48.562;12.108;2024-03-08T04:39:24;72.43;;;64.47;;
26062;SDS011;13837;48.562;12.108;2024-03-08T04:41:53;77.72;;;65.65;;
26062;SDS011;13837;48.562;12.108;2024-03-08T04:44:19;74.63;;;66.22;;
26062;SDS011;13837;48.562;12.108;2024-03-08T04:46:46;81.43;;;67.43;;
26062;SDS011;13837;48.562;12.108;2024-03-08T04:49:12;75.18;;;66.18;;
26062;SDS011;13837;48.562;12.108;2024-03-08T04:51:38;77.28;;;65.38;;
26062;SDS011;13837;48.562;12.108;2024-03-08T04:54:05;73.97;;;65.40;;
26062;SDS011;13837;48.562;12.108;2024-03-08T04:56:31;77.43;;;65.82;;
26062;SDS011;13837;48.562;12.108;2024-03-08T04:58:58;76.35;;;66.82;;
26062;SDS011;13837;48.562;12.108;2024-03-08T05:01:24;76.75;;;66.55;;
26062;SDS011;13837;48.562;12.108;2024-03-08T05:03:51;72.32;;;64.20;;
26062;SDS011;13837;48.562;12.108;2024-03-08T05:06:20;75.10;;;65.88;;
26062;SDS011;13837;48.562;12.108;2024-03-08T05:08:46;77.85;;;68.72;;
26062;SDS011;13837;48.562;12.108;2024-03-08T05:11:12;77.10;;;68.30;;
26062;SDS011;13837;48.562;12.108;2024-03-08T05:13:40;80.13;;;67.78;;
26062;SDS011;13837;48.562;12.108;2024-03-08T05:16:06;77.90;;;67.53;;
26062;SDS011;13837;48.562;12.108;2024-03-08T05:18:33;81.65;;;67.72;;
26062;SDS011;13837;48.562;12.108;2024-03-08T05:21:01;76.70;;;64.53;;
26062;SDS011;13837;48.562;12.108;2024-03-08T05:23:29;73.72;;;65.70;;
26062;SDS011;13837;48.562;12.108;2024-03-08T05:25:55;80.45;;;67.80;;
26062;SDS011;13837;48.562;12.108;2024-03-08T05:28:22;79.93;;;67.43;;
26062;SDS011;13837;48.562;12.108;2024-03-08T05:30:49;81.03;;;66.97;;
26062;SDS011;13837;48.562;12.108;2024-03-08T05:33:15;77.38;;;66.63;;
26062;SDS011;13837;48.562;12.108;2024-03-08T05:35:41;81.32;;;66.78;;
26062;SDS011;13837;48.562;12.108;2024-03-08T05:38:08;83.45;;;67.45;;
26062;SDS011;13837;48.562;12.108;2024-03-08T05:40:55;85.60;;;68.90;;
26062;SDS011;13837;48.562;12.108;2024-03-08T05:43:21;83.80;;;67.05;;
26062;SDS011;13837;48.562;12.108;2024-03-08T05:45:48;80.28;;;68.00;;
26062;SDS011;13837;48.562;12.108;2024-03-08T05:48:14;77.72;;;68.32;;
26062;SDS011;13837;48.562;12.108;2024-03-08T05:50:40;79.43;;;70.03;;
26062;SDS011;13837;48.562;12.108;2024-03-08T05:56:39;82.03;;;67.50;;
26062;SDS011;13837;48.562;12.108;2024-03-08T05:59:08;79.85;;;70.03;;
26062;SDS011;13837;48.562;12.108;2024-03-08T06:01:35;79.35;;;68.03;;
26062;SDS011;13837;48.562;12.108;2024-03-08T06:04:06;84.43;;;69.25;;
26062;SDS011;13837;48.562;12.108;2024-03-08T06:06:48;79.60;;;68.10;;
26062;SDS011;13837;48.562;12.108;2024-03-08T06:09:17;81.53;;;70.72;;
26062;SDS011;13837;48.562;12.108;2024-03-08T06:11:48;84.97;;;70.05;;
26062;SDS011;13837;48.562;12.108;2024-03-08T06:14:14;81.90;;;70.90;;
26062;SDS011;13837;48.562;12.108;2024-03-08T06:19:09;78.95;;;68.55;;
26062;SDS011;13837;48.562;12.108;2024-03-08T06:21:35;80.70;;;68.57;;
26062;SDS011;13837;48.562;12.108;2024-03-08T06:24:01;80.05;;;70.00;;
26062;SDS011;13837;48.562;12.108;2024-03-08T06:26:27;85.63;;;70.70;;
26062;SDS011;13837;48.562;12.108;2024-03-08T06:28:54;79.95;;;68.55;;
26062;SDS011;13837;48.562;12.108;2024-03-08T06:31:20;81.15;;;68.75;;
26062;SDS011;13837;48.562;12.108;2024-03-08T06:33:46;77.35;;;68.25;;
26062;SDS011;13837;48.562;12.108;2024-03-08T06:36:15;81.95;;;69.13;;
26062;SDS011;13837;48.562;12.108;2024-03-08T06:41:11;73.80;;;64.80;;
26062;SDS011;13837;48.562;12.108;2024-03-08T06:43:43;81.72;;;68.45;;
26062;SDS011;13837;48.562;12.108;2024-03-08T06:46:10;86.07;;;69.22;;
26062;SDS011;13837;48.562;12.108;2024-03-08T06:48:39;83.35;;;70.85;;
26062;SDS011;13837;48.562;12.108;2024-03-08T06:51:05;77.63;;;69.18;;
26062;SDS011;13837;48.562;12.108;2024-03-08T06:53:31;80.53;;;68.05;;
26062;SDS011;13837;48.562;12.108;2024-03-08T06:55:58;79.30;;;69.95;;
26062;SDS011;13837;48.562;12.108;2024-03-08T06:58:24;89.32;;;71.55;;
26062;SDS011;13837;48.562;12.108;2024-03-08T07:00:50;87.40;;;72.63;;
26062;SDS011;13837;48.562;12.108;2024-03-08T07:03:20;79.07;;;68.03;;
26062;SDS011;13837;48.562;12.108;2024-03-08T07:05:47;76.68;;;68.32;;
26062;SDS011;13837;48.562;12.108;2024-03-08T07:08:13;78.57;;;66.80;;
26062;SDS011;13837;48.562;12.108;2024-03-08T07:10:40;80.05;;;71.10;;
26062;SDS011;13837;48.562;12.108;2024-03-08T07:13:06;77.85;;;68.38;;
26062;SDS011;13837;48.562;12.108;2024-03-08T07:15:33;82.70;;;69.88;;
26062;SDS011;13837;48.562;12.108;2024-03-08T07:18:00;76.72;;;68.55;;
26062;SDS011;13837;48.562;12.108;2024-03-08T07:20:26;76.63;;;66.88;;
26062;SDS011;13837;48.562;12.108;2024-03-08T07:22:53;81.38;;;69.18;;
26062;SDS011;13837;48.562;12.108;2024-03-08T07:25:20;74.60;;;66.13;;
26062;SDS011;13837;48.562;12.108;2024-03-08T07:27:47;75.75;;;66.13;;
26062;SDS011;13837;48.562;12.108;2024-03-08T07:30:13;78.38;;;66.18;;
26062;SDS011;13837;48.562;12.108;2024-03-08T07:32:59;78.95;;;66.50;;
26062;SDS011;13837;48.562;12.108;2024-03-08T07:35:27;74.72;;;66.53;;
26062;SDS011;13837;48.562;12.108;2024-03-08T07:37:53;74.72;;;64.68;;
26062;SDS011;13837;48.562;12.108;2024-03-08T07:40:23;71.63;;;64.00;;
26062;SDS011;13837;48.562;12.108;2024-03-08T07:42:49;75.15;;;68.50;;
26062;SDS011;13837;48.562;12.108;2024-03-08T07:45:15;75.85;;;64.07;;
26062;SDS011;13837;48.562;12.108;2024-03-08T07:47:41;69.28;;;61.88;;
26062;SDS011;13837;48.562;12.108;2024-03-08T07:50:08;69.93;;;62.83;;
26062;SDS011;13837;48.562;12.108;2024-03-08T07:52:34;71.15;;;63.58;;
26062;SDS011;13837;48.562;12.108;2024-03-08T07:55:01;71.03;;;63.88;;
26062;SDS011;13837;48.562;12.108;2024-03-08T07:57:28;68.72;;;61.55;;
26062;SDS011;13837;48.562;12.108;2024-03-08T07:59:55;69.70;;;62.42;;
26062;SDS011;13837;48.562;12.108;2024-03-08T08:02:21;68.10;;;61.40;;
26062;SDS011;13837;48.562;12.108;2024-03-08T08:04:47;68.68;;;61.28;;
26062;SDS011;13837;48.562;12.108;2024-03-08T08:07:13;69.60;;;61.22;;
26062;SDS011;13837;48.562;12.108;2024-03-08T08:09:40;66.72;;;59.63;;
26062;SDS011;13837;48.562;12.108;2024-03-08T08:12:08;66.50;;;59.55;;
26062;SDS011;13837;48.562;12.108;2024-03-08T08:17:03;66.75;;;57.70;;
26062;SDS011;13837;48.562;12.108;2024-03-08T08:19:29;62.53;;;55.97;;
26062;SDS011;13837;48.562;12.108;2024-03-08T08:21:57;62.30;;;55.70;;
26062;SDS011;13837;48.562;12.108;2024-03-08T08:24:23;62.08;;;54.75;;
26062;SDS011;13837;48.562;12.108;2024-03-08T08:26:49;61.00;;;54.60;;
26062;SDS011;13837;48.562;12.108;2024-03-08T08:29:15;60.67;;;54.13;;
26062;SDS011;13837;48.562;12.108;2024-03-08T08:31:41;59.88;;;53.53;;
26062;SDS011;13837;48.562;12.108;2024-03-08T08:34:09;60.53;;;54.45;;
26062;SDS011;13837;48.562;12.108;2024-03-08T08:36:37;61.33;;;56.15;;
26062;SDS011;13837;48.562;12.108;2024-03-08T08:39:04;58.47;;;52.42;;
26062;SDS011;13837;48.562;12.108;2024-03-08T08:41:30;59.65;;;53.25;;
26062;SDS011;13837;48.562;12.108;2024-03-08T08:43:57;59.15;;;53.13;;
26062;SDS011;13837;48.562;12.108;2024-03-08T08:46:23;56.97;;;51.33;;
26062;SDS011;13837;48.562;12.108;2024-03-08T08:48:49;58.67;;;52.47;;
26062;SDS011;13837;48.562;12.108;2024-03-08T08:51:15;56.92;;;51.10;;
26062;SDS011;13837;48.562;12.108;2024-03-08T08:53:42;55.10;;;49.55;;
26062;SDS011;13837;48.562;12.108;2024-03-08T08:56:08;55.97;;;50.10;;
26062;SDS011;13837;48.562;12.108;2024-03-08T08:58:38;54.90;;;49.60;;
26062;SDS011;13837;48.562;12.108;2024-03-08T09:01:05;56.25;;;50.75;;
26062;SDS011;13837;48.562;12.108;2024-03-08T09:03:32;53.72;;;48.33;;
26062;SDS011;13837;48.562;12.108;2024-03-08T09:06:00;54.42;;;49.10;;
26062;SDS011;13837;48.562;12.108;2024-03-08T09:08:27;51.92;;;46.65;;
26062;SDS011;13837;48.562;12.108;2024-03-08T09:10:54;54.35;;;48.63;;
26062;SDS011;13837;48.562;12.108;2024-03-08T09:13:20;51.63;;;46.17;;
26062;SDS011;13837;48.562;12.108;2024-03-08T09:15:46;50.90;;;45.72;;
26062;SDS011;13837;48.562;12.108;2024-03-08T09:18:12;51.33;;;46.17;;
26062;SDS011;13837;48.562;12.108;2024-03-08T09:20:38;51.17;;;45.90;;
26062;SDS011;13837;48.562;12.108;2024-03-08T09:23:06;50.65;;;45.65;;
26062;SDS011;13837;48.562;12.108;2024-03-08T09:25:33;50.05;;;44.90;;
26062;SDS011;13837;48.562;12.108;2024-03-08T09:27:59;50.35;;;45.55;;
26062;SDS011;13837;48.562;12.108;2024-03-08T09:30:25;49.63;;;44.60;;
26062;SDS011;13837;48.562;12.108;2024-03-08T09:32:51;49.10;;;44.35;;
26062;SDS011;13837;48.562;12.108;2024-03-08T09:35:18;47.67;;;43.00;;
26062;SDS011;13837;48.562;12.108;2024-03-08T09:37:44;45.38;;;41.00;;
26062;SDS011;13837;48.562;12.108;2024-03-08T09:40:12;45.08;;;40.38;;
26062;SDS011;13837;48.562;12.108;2024-03-08T09:42:43;45.25;;;40.70;;
26062;SDS011;13837;48.562;12.108;2024-03-08T09:45:10;45.30;;;40.90;;
26062;SDS011;13837;48.562;12.108;2024-03-08T09:47:40;46.83;;;40.33;;
26062;SDS011;13837;48.562;12.108;2024-03-08T09:50:07;45.70;;;40.80;;
26062;SDS011;13837;48.562;12.108;2024-03-08T09:52:40;43.28;;;38.90;;
26062;SDS011;13837;48.562;12.108;2024-03-08T09:55:09;45.15;;;40.78;;
26062;SDS011;13837;48.562;12.108;2024-03-08T09:57:41;42.92;;;39.00;;
26062;SDS011;13837;48.562;12.108;2024-03-08T10:00:28;42.80;;;38.58;;
26062;SDS011;13837;48.562;12.108;2024-03-08T10:02:54;43.20;;;38.88;;
26062;SDS011;13837;48.562;12.108;2024-03-08T10:05:26;42.70;;;38.40;;
26062;SDS011;13837;48.562;12.108;2024-03-08T10:10:50;41.53;;;37.58;;
26062;SDS011;13837;48.562;12.108;2024-03-08T10:13:20;41.83;;;37.47;;
26062;SDS011;13837;48.562;12.108;2024-03-08T10:19:49;41.65;;;37.47;;
26062;SDS011;13837;48.562;12.108;2024-03-08T10:22:15;39.97;;;36.13;;
26062;SDS011;13837;48.562;12.108;2024-03-08T10:24:41;40.72;;;36.65;;
26062;SDS011;13837;48.562;12.108;2024-03-08T10:27:10;40.83;;;36.45;;
26062;SDS011;13837;48.562;12.108;2024-03-08T10:29:36;39.10;;;35.10;;
26062;SDS011;13837;48.562;12.108;2024-03-08T10:32:08;39.17;;;35.17;;
26062;SDS011;13837;48.562;12.108;2024-03-08T10:34:34;36.90;;;33.15;;
26062;SDS011;13837;48.562;12.108;2024-03-08T10:37:03;37.30;;;33.65;;
26062;SDS011;13837;48.562;12.108;2024-03-08T10:39:30;38.53;;;34.50;;
26062;SDS011;13837;48.562;12.108;2024-03-08T10:42:02;37.80;;;34.15;;
26062;SDS011;13837;48.562;12.108;2024-03-08T10:49:30;37.17;;;33.67;;
26062;SDS011;13837;48.562;12.108;2024-03-08T10:51:59;34.90;;;31.50;;
26062;SDS011;13837;48.562;12.108;2024-03-08T10:54:26;34.17;;;31.17;;
26062;SDS011;13837;48.562;12.108;2024-03-08T10:56:53;33.95;;;30.73;;
26062;SDS011;13837;48.562;12.108;2024-03-08T10:59:20;34.85;;;31.45;;
26062;SDS011;13837;48.562;12.108;2024-03-08T11:01:46;33.80;;;30.50;;
26062;SDS011;13837;48.562;12.108;2024-03-08T11:04:13;32.67;;;29.65;;
26062;SDS011;13837;48.562;12.108;2024-03-08T11:11:51;34.15;;;31.38;;
26062;SDS011;13837;48.562;12.108;2024-03-08T11:17:03;34.03;;;30.85;;
26062;SDS011;13837;48.562;12.108;2024-03-08T11:19:31;34.80;;;31.55;;
26062;SDS011;13837;48.562;12.108;2024-03-08T11:22:03;34.50;;;31.30;;
26062;SDS011;13837;48.562;12.108;2024-03-08T11:28:43;34.63;;;31.38;;
26062;SDS011;13837;48.562;12.108;2024-03-08T11:38:15;33.03;;;30.13;;
26062;SDS011;13837;48.562;12.108;2024-03-08T11:40:52;31.85;;;28.95;;
26062;SDS011;13837;48.562;12.108;2024-03-08T11:43:18;30.08;;;27.48;;
26062;SDS011;13837;48.562;12.108;2024-03-08T11:45:45;30.58;;;28.00;;
26062;SDS011;13837;48.562;12.108;2024-03-08T11:48:11;31.45;;;28.48;;
26062;SDS011;13837;48.562;12.108;2024-03-08T11:50:38;32.00;;;29.02;;
26062;SDS011;13837;48.562;12.108;2024-03-08T11:53:04;30.17;;;27.48;;
26062;SDS011;13837;48.562;12.108;2024-03-08T11:55:31;30.15;;;27.38;;
26062;SDS011;13837;48.562;12.108;2024-03-08T11:58:04;29.05;;;26.45;;
26062;SDS011;13837;48.562;12.108;2024-03-08T12:00:32;28.92;;;26.23;;
26062;SDS011;13837;48.562;12.108;2024-03-08T12:05:29;28.65;;;26.15;;
26062;SDS011;13837;48.562;12.108;2024-03-08T12:07:57;29.10;;;26.50;;
26062;SDS011;13837;48.562;12.108;2024-03-08T12:10:23;26.63;;;24.33;;
26062;SDS011;13837;48.562;12.108;2024-03-08T12:12:53;27.83;;;25.42;;
26062;SDS011;13837;48.562;12.108;2024-03-08T12:17:47;28.17;;;25.77;;
26062;SDS011;13837;48.562;12.108;2024-03-08T12:20:26;28.60;;;26.08;;
26062;SDS011;13837;48.562;12.108;2024-03-08T12:22:54;28.25;;;25.80;;
26062;SDS011;13837;48.562;12.108;2024-03-08T12:25:27;28.08;;;25.75;;
26062;SDS011;13837;48.562;12.108;2024-03-08T12:27:56;28.85;;;26.40;;
26062;SDS011;13837;48.562;12.108;2024-03-08T12:30:25;27.63;;;25.40;;
26062;SDS011;13837;48.562;12.108;2024-03-08T12:32:58;26.25;;;24.05;;
26062;SDS011;13837;48.562;12.108;2024-03-08T12:35:27;24.92;;;22.85;;
26062;SDS011;13837;48.562;12.108;2024-03-08T12:38:08;25.15;;;23.13;;
26062;SDS011;13837;48.562;12.108;2024-03-08T12:40:44;25.27;;;23.17;;
26062;SDS011;13837;48.562;12.108;2024-03-08T12:43:14;25.02;;;22.92;;
26062;SDS011;13837;48.562;12.108;2024-03-08T12:45:42;25.05;;;22.88;;
26062;SDS011;13837;48.562;12.108;2024-03-08T12:48:45;24.98;;;22.90;;
26062;SDS011;13837;48.562;12.108;2024-03-08T12:51:19;24.67;;;22.60;;
26062;SDS011;13837;48.562;12.108;2024-03-08T12:54:21;24.90;;;22.80;;
26062;SDS011;13837;48.562;12.108;2024-03-08T13:01:02;23.63;;;21.42;;
26062;SDS011;13837;48.562;12.108;2024-03-08T13:04:37;22.27;;;20.38;;
26062;SDS011;13837;48.562;12.108;2024-03-08T13:10:43;21.23;;;19.50;;
26062;SDS011;13837;48.562;12.108;2024-03-08T13:13:09;21.02;;;19.42;;
26062;SDS011;13837;48.562;12.108;2024-03-08T13:15:36;22.45;;;20.55;;
26062;SDS011;13837;48.562;12.108;2024-03-08T13:18:02;21.98;;;20.27;;
26062;SDS011;13837;48.562;12.108;2024-03-08T13:20:30;22.60;;;20.77;;
26062;SDS011;13837;48.562;12.108;2024-03-08T13:22:57;23.55;;;21.65;;
26062;SDS011;13837;48.562;12.108;2024-03-08T13:25:25;22.98;;;21.05;;
26062;SDS011;13837;48.562;12.108;2024-03-08T13:27:54;21.35;;;19.63;;
26062;SDS011;13837;48.562;12.108;2024-03-08T13:30:22;22.45;;;20.65;;
26062;SDS011;13837;48.562;12.108;2024-03-08T13:35:18;22.60;;;20.55;;
26062;SDS011;13837;48.562;12.108;2024-03-08T13:37:49;23.02;;;20.77;;
26062;SDS011;13837;48.562;12.108;2024-03-08T13:40:15;23.38;;;21.38;;
26062;SDS011;13837;48.562;12.108;2024-03-08T13:42:44;22.80;;;20.63;;
26062;SDS011;13837;48.562;12.108;2024-03-08T13:45:10;22.75;;;20.77;;
26062;SDS011;13837;48.562;12.108;2024-03-08T13:47:36;22.65;;;20.55;;
26062;SDS011;13837;48.562;12.108;2024-03-08T13:50:02;21.60;;;19.80;;
26062;SDS011;13837;48.562;12.108;2024-03-08T13:52:32;20.95;;;19.42;;
26062;SDS011;13837;48.562;12.108;2024-03-08T13:55:00;20.73;;;19.08;;
26062;SDS011;13837;48.562;12.108;2024-03-08T13:57:26;21.95;;;20.13;;
26062;SDS011;13837;48.562;12.108;2024-03-08T13:59:52;20.83;;;19.20;;
26062;SDS011;13837;48.562;12.108;2024-03-08T14:02:19;20.95;;;19.25;;
26062;SDS011;13837;48.562;12.108;2024-03-08T14:04:47;21.90;;;20.00;;
26062;SDS011;13837;48.562;12.108;2024-03-08T14:07:15;21.08;;;19.38;;
26062;SDS011;13837;48.562;12.108;2024-03-08T14:09:41;20.52;;;18.90;;
26062;SDS011;13837;48.562;12.108;2024-03-08T14:12:08;20.80;;;19.00;;
26062;SDS011;13837;48.562;12.108;2024-03-08T14:14:35;21.27;;;19.58;;
26062;SDS011;13837;48.562;12.108;2024-03-08T14:17:02;21.13;;;19.42;;
26062;SDS011;13837;48.562;12.108;2024-03-08T14:19:29;21.52;;;19.80;;
26062;SDS011;13837;48.562;12.108;2024-03-08T14:21:59;20.77;;;19.17;;
26062;SDS011;13837;48.562;12.108;2024-03-08T14:24:25;22.27;;;20.38;;
26062;SDS011;13837;48.562;12.108;2024-03-08T14:26:51;21.88;;;20.13;;
26062;SDS011;13837;48.562;12.108;2024-03-08T14:29:17;21.58;;;19.88;;
26062;SDS011;13837;48.562;12.108;2024-03-08T14:31:44;21.83;;;20.05;;
26062;SDS011;13837;48.562;12.108;2024-03-08T14:34:11;21.63;;;19.85;;
26062;SDS011;13837;48.562;12.108;2024-03-08T14:37:04;21.25;;;19.33;;
26062;SDS011;13837;48.562;12.108;2024-03-08T14:39:40;21.58;;;19.73;;
26062;SDS011;13837;48.562;12.108;2024-03-08T14:42:07;22.10;;;20.20;;
26062;SDS011;13837;48.562;12.108;2024-03-08T14:44:37;21.23;;;19.33;;
26062;SDS011;13837;48.562;12.108;2024-03-08T14:47:04;21.83;;;19.92;;
26062;SDS011;13837;48.562;12.108;2024-03-08T14:49:31;20.83;;;19.02;;
26062;SDS011;13837;48.562;12.108;2024-03-08T14:52:03;21.52;;;19.58;;
26062;SDS011;13837;48.562;12.108;2024-03-08T14:54:49;21.38;;;19.58;;
26062;SDS011;13837;48.562;12.108;2024-03-08T14:57:16;21.67;;;19.95;;
26062;SDS011;13837;48.562;12.108;2024-03-08T14:59:42;22.05;;;20.25;;
26062;SDS011;13837;48.562;12.108;2024-03-08T15:02:08;22.83;;;20.88;;
26062;SDS011;13837;48.562;12.108;2024-03-08T15:04:35;23.55;;;21.50;;
26062;SDS011;13837;48.562;12.108;2024-03-08T15:07:02;23.42;;;21.23;;
26062;SDS011;13837;48.562;12.108;2024-03-08T15:09:31;22.85;;;20.77;;
26062;SDS011;13837;48.562;12.108;2024-03-08T15:12:05;23.75;;;21.75;;
26062;SDS011;13837;48.562;12.108;2024-03-08T15:14:32;23.60;;;21.52;;
26062;SDS011;13837;48.562;12.108;2024-03-08T15:16:58;24.13;;;22.02;;
26062;SDS011;13837;48.562;12.108;2024-03-08T15:19:26;23.52;;;21.63;;